sensor_id;sensor_type;location;lat;lon;timestamp;pressure;altitude;pressure_sealevel;temperature;humidity
23321;BME280;33376;51.306;4.752;2023-01-31T00:03:30;102749.91;;;3.15;nan
23321;BME280;33376;51.306;4.752;2023-01-31T00:05:56;102749.91;;;3.16;nan
23321;BME280;33376;51.306;4.752;2023-01-31T00:08:21;102750.81;;;3.18;nan
23321;BME280;33376;51.306;4.752;2023-01-31T00:10:46;102746.47;;;3.22;nan
23321;BME280;33376;51.306;4.752;2023-01-31T00:13:12;102746.38;;;3.10;nan
23321;BME280;33376;51.306;4.752;2023-01-31T00:15:37;102748.09;;;3.02;nan
23321;BME280;33376;51.306;4.752;2023-01-31T00:18:02;102745.31;;;2.79;nan
23321;BME280;33376;51.306;4.752;2023-01-31T00:20:27;102735.59;;;2.66;nan
23321;BME280;33376;51.306;4.752;2023-01-31T00:22:52;102738.22;;;2.66;nan
23321;BME280;33376;51.306;4.752;2023-01-31T00:25:18;102739.00;;;2.56;nan
23321;BME280;33376;51.306;4.752;2023-01-31T00:27:43;102745.94;;;2.49;nan
23321;BME280;33376;51.306;4.752;2023-01-31T00:30:08;102740.63;;;2.40;nan
23321;BME280;33376;51.306;4.752;2023-01-31T00:32:34;102739.75;;;2.41;nan
23321;BME280;33376;51.306;4.752;2023-01-31T00:34:59;102739.78;;;2.46;nan
23321;BME280;33376;51.306;4.752;2023-01-31T00:37:25;102740.69;;;2.48;nan
23321;BME280;33376;51.306;4.752;2023-01-31T00:39:50;102739.72;;;2.37;nan
23321;BME280;33376;51.306;4.752;2023-01-31T00:42:15;102739.75;;;2.41;nan
23321;BME280;33376;51.306;4.752;2023-01-31T00:44:41;102737.09;;;2.38;nan
23321;BME280;33376;51.306;4.752;2023-01-31T00:47:06;102737.97;;;2.37;nan
23321;BME280;33376;51.306;4.752;2023-01-31T00:49:31;102734.44;;;2.32;nan
23321;BME280;33376;51.306;4.752;2023-01-31T00:51:56;102737.00;;;2.26;nan
23321;BME280;33376;51.306;4.752;2023-01-31T00:54:22;102729.16;;;2.25;nan
23321;BME280;33376;51.306;4.752;2023-01-31T00:56:47;102729.13;;;2.22;nan
23321;BME280;33376;51.306;4.752;2023-01-31T00:59:12;102729.06;;;2.17;nan
23321;BME280;33376;51.306;4.752;2023-01-31T01:01:37;102713.44;;;2.25;nan
23321;BME280;33376;51.306;4.752;2023-01-31T01:04:03;102723.75;;;2.11;nan
23321;BME280;33376;51.306;4.752;2023-01-31T01:06:28;102716.78;;;2.10;nan
23321;BME280;33376;51.306;4.752;2023-01-31T01:08:54;102717.72;;;2.15;nan
23321;BME280;33376;51.306;4.752;2023-01-31T01:11:24;102714.28;;;2.22;nan
23321;BME280;33376;51.306;4.752;2023-01-31T01:13:50;102713.25;;;2.07;nan
23321;BME280;33376;51.306;4.752;2023-01-31T01:16:18;102713.31;;;2.13;nan
23321;BME280;33376;51.306;4.752;2023-01-31T01:18:44;102708.06;;;2.13;nan
23321;BME280;33376;51.306;4.752;2023-01-31T01:21:16;102710.72;;;2.16;nan
23321;BME280;33376;51.306;4.752;2023-01-31T01:23:42;102700.28;;;2.20;nan
23321;BME280;33376;51.306;4.752;2023-01-31T01:26:18;102696.88;;;2.27;nan
23321;BME280;33376;51.306;4.752;2023-01-31T01:28:43;102679.53;;;2.38;nan
23321;BME280;33376;51.306;4.752;2023-01-31T01:31:10;102695.13;;;2.26;nan
23321;BME280;33376;51.306;4.752;2023-01-31T01:33:35;102705.28;;;1.95;nan
23321;BME280;33376;51.306;4.752;2023-01-31T01:36:01;102702.59;;;1.87;nan
23321;BME280;33376;51.306;4.752;2023-01-31T01:38:27;102702.56;;;1.84;nan
23321;BME280;33376;51.306;4.752;2023-01-31T01:40:52;102699.97;;;1.86;nan
23321;BME280;33376;51.306;4.752;2023-01-31T01:43:17;102699.16;;;1.90;nan
23321;BME280;33376;51.306;4.752;2023-01-31T01:45:43;102691.31;;;1.91;nan
23321;BME280;33376;51.306;4.752;2023-01-31T01:48:10;102687.72;;;1.80;nan
23321;BME280;33376;51.306;4.752;2023-01-31T01:50:39;102685.19;;;1.91;nan
23321;BME280;33376;51.306;4.752;2023-01-31T01:53:10;102676.38;;;1.81;nan
23321;BME280;33376;51.306;4.752;2023-01-31T01:55:49;102672.91;;;1.85;nan
23321;BME280;33376;51.306;4.752;2023-01-31T02:00:41;102686.09;;;1.94;nan
23321;BME280;33376;51.306;4.752;2023-01-31T02:03:06;102686.88;;;1.84;nan
23321;BME280;33376;51.306;4.752;2023-01-31T02:05:34;102684.22;;;1.80;nan
23321;BME280;33376;51.306;4.752;2023-01-31T02:08:01;102676.56;;;1.98;nan
23321;BME280;33376;51.306;4.752;2023-01-31T02:10:34;102678.31;;;2.00;nan
23321;BME280;33376;51.306;4.752;2023-01-31T02:13:02;102681.84;;;2.05;nan
23321;BME280;33376;51.306;4.752;2023-01-31T02:15:28;102675.69;;;1.99;nan
23321;BME280;33376;51.306;4.752;2023-01-31T02:17:53;102682.56;;;1.91;nan
23321;BME280;33376;51.306;4.752;2023-01-31T02:26:29;102680.84;;;1.90;nan
23321;BME280;33376;51.306;4.752;2023-01-31T02:29:02;102674.69;;;1.88;nan
23321;BME280;33376;51.306;4.752;2023-01-31T02:44:26;102641.47;;;1.79;nan
23321;BME280;33376;51.306;4.752;2023-01-31T02:49:40;102636.13;;;1.66;nan
23321;BME280;33376;51.306;4.752;2023-01-31T02:52:10;102646.56;;;1.61;nan
23321;BME280;33376;51.306;4.752;2023-01-31T02:54:40;102647.34;;;1.57;nan
23321;BME280;33376;51.306;4.752;2023-01-31T02:57:25;102644.84;;;1.68;nan
23321;BME280;33376;51.306;4.752;2023-01-31T02:59:51;102639.56;;;1.62;nan
23321;BME280;33376;51.306;4.752;2023-01-31T03:02:17;102641.34;;;1.64;nan
23321;BME280;33376;51.306;4.752;2023-01-31T03:04:42;102634.34;;;1.63;nan
23321;BME280;33376;51.306;4.752;2023-01-31T03:07:12;102640.50;;;1.70;nan
23321;BME280;33376;51.306;4.752;2023-01-31T03:12:31;102621.63;;;1.99;nan
23321;BME280;33376;51.306;4.752;2023-01-31T03:15:09;102622.50;;;2.03;nan
23321;BME280;33376;51.306;4.752;2023-01-31T03:17:57;102623.53;;;2.15;nan
23321;BME280;33376;51.306;4.752;2023-01-31T03:20:38;102620.09;;;2.25;nan
23321;BME280;33376;51.306;4.752;2023-01-31T03:23:17;102628.09;;;2.43;nan
23321;BME280;33376;51.306;4.752;2023-01-31T03:25:44;102608.88;;;2.41;nan
23321;BME280;33376;51.306;4.752;2023-01-31T03:28:12;102609.75;;;2.39;nan
23321;BME280;33376;51.306;4.752;2023-01-31T03:33:12;102595.81;;;2.47;nan
23321;BME280;33376;51.306;4.752;2023-01-31T03:35:38;102584.50;;;2.50;nan
23321;BME280;33376;51.306;4.752;2023-01-31T03:38:10;102580.16;;;2.53;nan
23321;BME280;33376;51.306;4.752;2023-01-31T03:40:37;102582.66;;;2.37;nan
23321;BME280;33376;51.306;4.752;2023-01-31T03:43:19;102590.50;;;2.35;nan
23321;BME280;33376;51.306;4.752;2023-01-31T03:46:30;102578.31;;;2.36;nan
23321;BME280;33376;51.306;4.752;2023-01-31T03:48:36;102566.91;;;2.26;nan
23321;BME280;33376;51.306;4.752;2023-01-31T03:51:03;102562.53;;;2.28;nan
23321;BME280;33376;51.306;4.752;2023-01-31T03:53:31;102565.13;;;2.22;nan
23321;BME280;33376;51.306;4.752;2023-01-31T03:56:02;102578.22;;;2.25;nan
23321;BME280;33376;51.306;4.752;2023-01-31T03:58:29;102572.06;;;2.17;nan
23321;BME280;33376;51.306;4.752;2023-01-31T04:00:59;102576.41;;;2.14;nan
23321;BME280;33376;51.306;4.752;2023-01-31T04:03:37;102575.47;;;2.06;nan
23321;BME280;33376;51.306;4.752;2023-01-31T04:06:04;102567.66;;;2.10;nan
23321;BME280;33376;51.306;4.752;2023-01-31T04:08:30;102565.88;;;2.09;nan
23321;BME280;33376;51.306;4.752;2023-01-31T04:10:56;102558.94;;;2.11;nan
23321;BME280;33376;51.306;4.752;2023-01-31T04:13:22;102551.03;;;2.02;nan
23321;BME280;33376;51.306;4.752;2023-01-31T04:15:47;102540.59;;;2.08;nan
23321;BME280;33376;51.306;4.752;2023-01-31T04:18:13;102532.88;;;2.22;nan
23321;BME280;33376;51.306;4.752;2023-01-31T04:20:38;102547.53;;;2.02;nan
23321;BME280;33376;51.306;4.752;2023-01-31T04:23:03;102557.03;;;1.89;nan
23321;BME280;33376;51.306;4.752;2023-01-31T04:25:28;102546.63;;;1.97;nan
23321;BME280;33376;51.306;4.752;2023-01-31T04:27:54;102550.16;;;2.02;nan
23321;BME280;33376;51.306;4.752;2023-01-31T04:30:19;102539.78;;;2.15;nan
23321;BME280;33376;51.306;4.752;2023-01-31T04:32:44;102543.16;;;1.99;nan
23321;BME280;33376;51.306;4.752;2023-01-31T04:35:10;102544.97;;;2.09;nan
23321;BME280;33376;51.306;4.752;2023-01-31T04:37:35;102541.56;;;2.21;nan
23321;BME280;33376;51.306;4.752;2023-01-31T04:40:04;102530.25;;;2.22;nan
23321;BME280;33376;51.306;4.752;2023-01-31T04:42:30;102527.66;;;2.29;nan
23321;BME280;33376;51.306;4.752;2023-01-31T04:45:00;102524.25;;;2.39;nan
23321;BME280;33376;51.306;4.752;2023-01-31T04:47:25;102520.75;;;2.40;nan
23321;BME280;33376;51.306;4.752;2023-01-31T04:49:50;102526.03;;;2.49;nan
23321;BME280;33376;51.306;4.752;2023-01-31T04:52:16;102505.09;;;2.55;nan
23321;BME280;33376;51.306;4.752;2023-01-31T04:54:41;102513.84;;;2.54;nan
23321;BME280;33376;51.306;4.752;2023-01-31T04:57:06;102513.81;;;2.51;nan
23321;BME280;33376;51.306;4.752;2023-01-31T04:59:31;102499.91;;;2.58;nan
23321;BME280;33376;51.306;4.752;2023-01-31T05:01:57;102491.19;;;2.68;nan
23321;BME280;33376;51.306;4.752;2023-01-31T05:04:22;102481.59;;;2.69;nan
23321;BME280;33376;51.306;4.752;2023-01-31T05:06:47;102493.81;;;2.64;nan
23321;BME280;33376;51.306;4.752;2023-01-31T05:09:13;102490.44;;;2.93;nan
23321;BME280;33376;51.306;4.752;2023-01-31T05:11:38;102480.81;;;2.92;nan
23321;BME280;33376;51.306;4.752;2023-01-31T05:14:03;102475.56;;;2.92;nan
23321;BME280;33376;51.306;4.752;2023-01-31T05:16:28;102465.97;;;2.99;nan
23321;BME280;33376;51.306;4.752;2023-01-31T05:18:54;102465.97;;;2.93;nan
23321;BME280;33376;51.306;4.752;2023-01-31T05:21:19;102474.72;;;2.98;nan
23321;BME280;33376;51.306;4.752;2023-01-31T05:23:44;102477.28;;;2.87;nan
23321;BME280;33376;51.306;4.752;2023-01-31T05:26:10;102473.81;;;2.93;nan
23321;BME280;33376;51.306;4.752;2023-01-31T05:28:35;102480.81;;;2.91;nan
23321;BME280;33376;51.306;4.752;2023-01-31T05:31:01;102476.44;;;2.99;nan
23321;BME280;33376;51.306;4.752;2023-01-31T05:33:27;102479.94;;;2.95;nan
23321;BME280;33376;51.306;4.752;2023-01-31T05:35:53;102479.91;;;2.90;nan
23321;BME280;33376;51.306;4.752;2023-01-31T05:38:18;102482.59;;;3.03;nan
23321;BME280;33376;51.306;4.752;2023-01-31T05:40:43;102472.09;;;3.07;nan
23321;BME280;33376;51.306;4.752;2023-01-31T05:43:08;102466.88;;;3.12;nan
23321;BME280;33376;51.306;4.752;2023-01-31T05:45:33;102466.88;;;3.18;nan
23321;BME280;33376;51.306;4.752;2023-01-31T05:47:59;102470.38;;;3.18;nan
23321;BME280;33376;51.306;4.752;2023-01-31T05:50:24;102466.91;;;3.24;nan
23321;BME280;33376;51.306;4.752;2023-01-31T05:52:53;102466.00;;;3.32;nan
23321;BME280;33376;51.306;4.752;2023-01-31T05:55:19;102481.75;;;3.25;nan
23321;BME280;33376;51.306;4.752;2023-01-31T05:57:45;102471.25;;;3.29;nan
23321;BME280;33376;51.306;4.752;2023-01-31T06:00:11;102466.91;;;3.22;nan
23321;BME280;33376;51.306;4.752;2023-01-31T06:02:36;102469.53;;;3.24;nan
23321;BME280;33376;51.306;4.752;2023-01-31T06:05:01;102465.16;;;3.29;nan
23321;BME280;33376;51.306;4.752;2023-01-31T06:07:27;102458.19;;;3.37;nan
23321;BME280;33376;51.306;4.752;2023-01-31T06:09:52;102454.66;;;3.66;nan
23321;BME280;33376;51.306;4.752;2023-01-31T06:12:17;102459.91;;;3.63;nan
23321;BME280;33376;51.306;4.752;2023-01-31T06:14:42;102451.16;;;3.66;nan
23321;BME280;33376;51.306;4.752;2023-01-31T06:17:10;102454.66;;;3.65;nan
23321;BME280;33376;51.306;4.752;2023-01-31T06:19:35;102457.31;;;3.57;nan
23321;BME280;33376;51.306;4.752;2023-01-31T06:22:00;102452.03;;;3.66;nan
23321;BME280;33376;51.306;4.752;2023-01-31T06:24:25;102435.41;;;3.87;nan
23321;BME280;33376;51.306;4.752;2023-01-31T06:26:51;102437.13;;;3.88;nan
23321;BME280;33376;51.306;4.752;2023-01-31T06:29:16;102442.41;;;3.76;nan
23321;BME280;33376;51.306;4.752;2023-01-31T06:31:44;102461.66;;;3.60;nan
23321;BME280;33376;51.306;4.752;2023-01-31T06:34:10;102452.06;;;3.60;nan
23321;BME280;33376;51.306;4.752;2023-01-31T06:36:35;102458.19;;;3.65;nan
23321;BME280;33376;51.306;4.752;2023-01-31T06:39:00;102452.91;;;3.70;nan
23321;BME280;33376;51.306;4.752;2023-01-31T06:41:28;102449.41;;;3.71;nan
23321;BME280;33376;51.306;4.752;2023-01-31T06:43:53;102445.94;;;3.73;nan
23321;BME280;33376;51.306;4.752;2023-01-31T06:46:18;102438.03;;;3.87;nan
23321;BME280;33376;51.306;4.752;2023-01-31T06:48:43;102430.16;;;3.87;nan
23321;BME280;33376;51.306;4.752;2023-01-31T06:51:09;102444.16;;;3.80;nan
23321;BME280;33376;51.306;4.752;2023-01-31T06:53:34;102437.16;;;3.79;nan
23321;BME280;33376;51.306;4.752;2023-01-31T06:55:59;102438.91;;;3.78;nan
23321;BME280;33376;51.306;4.752;2023-01-31T06:58:25;102437.16;;;3.85;nan
23321;BME280;33376;51.306;4.752;2023-01-31T07:00:50;102437.16;;;3.94;nan
23321;BME280;33376;51.306;4.752;2023-01-31T07:03:15;102444.13;;;3.93;nan
23321;BME280;33376;51.306;4.752;2023-01-31T07:05:40;102437.13;;;4.00;nan
23321;BME280;33376;51.306;4.752;2023-01-31T07:08:06;102442.38;;;4.00;nan
23321;BME280;33376;51.306;4.752;2023-01-31T07:10:31;102444.13;;;3.95;nan
23321;BME280;33376;51.306;4.752;2023-01-31T07:12:57;102441.50;;;3.99;nan
23321;BME280;33376;51.306;4.752;2023-01-31T07:15:22;102431.84;;;4.12;nan
23321;BME280;33376;51.306;4.752;2023-01-31T07:17:47;102432.69;;;4.17;nan
23321;BME280;33376;51.306;4.752;2023-01-31T07:20:12;102436.19;;;4.23;nan
23321;BME280;33376;51.306;4.752;2023-01-31T07:22:38;102438.78;;;4.25;nan
23321;BME280;33376;51.306;4.752;2023-01-31T07:25:03;102438.78;;;4.28;nan
23321;BME280;33376;51.306;4.752;2023-01-31T07:27:28;102432.63;;;4.35;nan
23321;BME280;33376;51.306;4.752;2023-01-31T07:29:53;102437.00;;;4.37;nan
23321;BME280;33376;51.306;4.752;2023-01-31T07:32:19;102438.72;;;4.44;nan
23321;BME280;33376;51.306;4.752;2023-01-31T07:34:44;102436.09;;;4.46;nan
23321;BME280;33376;51.306;4.752;2023-01-31T07:37:10;102436.09;;;4.47;nan
23321;BME280;33376;51.306;4.752;2023-01-31T07:39:35;102442.19;;;4.51;nan
23321;BME280;33376;51.306;4.752;2023-01-31T07:42:00;102429.00;;;4.60;nan
23321;BME280;33376;51.306;4.752;2023-01-31T07:44:26;102418.50;;;4.60;nan
23321;BME280;33376;51.306;4.752;2023-01-31T07:46:51;102421.13;;;4.63;nan
23321;BME280;33376;51.306;4.752;2023-01-31T07:49:18;102414.97;;;4.69;nan
23321;BME280;33376;51.306;4.752;2023-01-31T07:51:44;102417.59;;;4.67;nan
23321;BME280;33376;51.306;4.752;2023-01-31T07:54:09;102422.78;;;4.78;nan
23321;BME280;33376;51.306;4.752;2023-01-31T07:56:35;102412.22;;;4.87;nan
23321;BME280;33376;51.306;4.752;2023-01-31T07:59:00;102412.19;;;4.93;nan
23321;BME280;33376;51.306;4.752;2023-01-31T08:01:26;102397.22;;;5.04;nan
23321;BME280;33376;51.306;4.752;2023-01-31T08:04:11;102392.81;;;5.04;nan
23321;BME280;33376;51.306;4.752;2023-01-31T08:06:38;102381.38;;;5.11;nan
23321;BME280;33376;51.306;4.752;2023-01-31T08:09:03;102375.22;;;5.15;nan
23321;BME280;33376;51.306;4.752;2023-01-31T08:11:28;102373.34;;;5.29;nan
23321;BME280;33376;51.306;4.752;2023-01-31T08:13:54;102356.72;;;5.26;nan
23321;BME280;33376;51.306;4.752;2023-01-31T08:16:19;102347.94;;;5.27;nan
23321;BME280;33376;51.306;4.752;2023-01-31T08:18:45;102337.44;;;5.25;nan
23321;BME280;33376;51.306;4.752;2023-01-31T08:21:11;102332.00;;;5.45;nan
23321;BME280;33376;51.306;4.752;2023-01-31T08:23:36;102335.50;;;5.45;nan
23321;BME280;33376;51.306;4.752;2023-01-31T08:26:04;102322.38;;;5.44;nan
23321;BME280;33376;51.306;4.752;2023-01-31T08:28:30;102308.31;;;5.46;nan
23321;BME280;33376;51.306;4.752;2023-01-31T08:30:56;102308.28;;;5.49;nan
23321;BME280;33376;51.306;4.752;2023-01-31T08:33:21;102298.53;;;5.59;nan
23321;BME280;33376;51.306;4.752;2023-01-31T08:35:47;102293.19;;;5.63;nan
23321;BME280;33376;51.306;4.752;2023-01-31T08:38:12;102289.66;;;5.69;nan
23321;BME280;33376;51.306;4.752;2023-01-31T08:40:37;102265.00;;;5.77;nan
23321;BME280;33376;51.306;4.752;2023-01-31T08:43:02;102264.81;;;5.92;nan
23321;BME280;33376;51.306;4.752;2023-01-31T08:45:28;102246.44;;;5.89;nan
23321;BME280;33376;51.306;4.752;2023-01-31T08:47:57;102246.28;;;5.98;nan
23321;BME280;33376;51.306;4.752;2023-01-31T08:50:23;102243.69;;;5.97;nan
23321;BME280;33376;51.306;4.752;2023-01-31T08:52:53;102245.31;;;6.07;nan
23321;BME280;33376;51.306;4.752;2023-01-31T08:55:18;102250.47;;;6.13;nan
23321;BME280;33376;51.306;4.752;2023-01-31T08:57:44;102248.78;;;6.11;nan
23321;BME280;33376;51.306;4.752;2023-01-31T09:00:10;102238.97;;;6.22;nan
23321;BME280;33376;51.306;4.752;2023-01-31T09:02:35;102258.19;;;6.27;nan
23321;BME280;33376;51.306;4.752;2023-01-31T09:05:01;102265.19;;;6.28;nan
23321;BME280;33376;51.306;4.752;2023-01-31T09:07:26;102286.22;;;6.31;nan
23321;BME280;33376;51.306;4.752;2023-01-31T09:09:51;102271.16;;;6.40;nan
23321;BME280;33376;51.306;4.752;2023-01-31T09:12:16;102271.09;;;6.43;nan
23321;BME280;33376;51.306;4.752;2023-01-31T09:14:41;102275.59;;;6.37;nan
23321;BME280;33376;51.306;4.752;2023-01-31T09:17:07;102280.00;;;6.36;nan
23321;BME280;33376;51.306;4.752;2023-01-31T09:19:34;102284.25;;;6.45;nan
23321;BME280;33376;51.306;4.752;2023-01-31T09:21:59;102293.25;;;6.32;nan
23321;BME280;33376;51.306;4.752;2023-01-31T09:24:25;102284.38;;;6.37;nan
23321;BME280;33376;51.306;4.752;2023-01-31T09:26:50;102297.56;;;6.36;nan
23321;BME280;33376;51.306;4.752;2023-01-31T09:29:18;102292.16;;;6.48;nan
23321;BME280;33376;51.306;4.752;2023-01-31T09:31:43;102285.13;;;6.45;nan
23321;BME280;33376;51.306;4.752;2023-01-31T09:34:08;102296.28;;;6.62;nan
23321;BME280;33376;51.306;4.752;2023-01-31T09:36:33;102290.88;;;6.73;nan
23321;BME280;33376;51.306;4.752;2023-01-31T09:38:59;102292.47;;;6.83;nan
23321;BME280;33376;51.306;4.752;2023-01-31T09:41:29;102291.34;;;6.96;nan
23321;BME280;33376;51.306;4.752;2023-01-31T09:44:30;102299.94;;;7.07;nan
23321;BME280;33376;51.306;4.752;2023-01-31T09:46:50;102290.97;;;7.17;nan
23321;BME280;33376;51.306;4.752;2023-01-31T09:49:21;102300.84;;;7.06;nan
23321;BME280;33376;51.306;4.752;2023-01-31T09:51:50;102314.91;;;7.06;nan
23321;BME280;33376;51.306;4.752;2023-01-31T09:54:18;102314.16;;;6.98;nan
23321;BME280;33376;51.306;4.752;2023-01-31T09:56:47;102317.59;;;7.03;nan
23321;BME280;33376;51.306;4.752;2023-01-31T09:59:27;102326.28;;;7.08;nan
23321;BME280;33376;51.306;4.752;2023-01-31T10:01:55;102330.47;;;7.21;nan
23321;BME280;33376;51.306;4.752;2023-01-31T10:07:03;102342.84;;;7.19;nan
23321;BME280;33376;51.306;4.752;2023-01-31T10:09:34;102338.41;;;7.20;nan
23321;BME280;33376;51.306;4.752;2023-01-31T10:12:04;102339.59;;;7.01;nan
23321;BME280;33376;51.306;4.752;2023-01-31T10:14:32;102322.97;;;6.96;nan
23321;BME280;33376;51.306;4.752;2023-01-31T10:17:00;102320.88;;;7.17;nan
23321;BME280;33376;51.306;4.752;2023-01-31T10:19:31;102310.25;;;7.22;nan
23321;BME280;33376;51.306;4.752;2023-01-31T10:22:05;102315.31;;;7.32;nan
23321;BME280;33376;51.306;4.752;2023-01-31T10:24:38;102304.66;;;7.40;nan
23321;BME280;33376;51.306;4.752;2023-01-31T10:27:06;102297.28;;;7.57;nan
23321;BME280;33376;51.306;4.752;2023-01-31T10:29:36;102265.84;;;7.88;nan
23321;BME280;33376;51.306;4.752;2023-01-31T10:32:04;102282.53;;;7.90;nan
23321;BME280;33376;51.306;4.752;2023-01-31T10:44:33;102308.44;;;7.71;nan
23321;BME280;33376;51.306;4.752;2023-01-31T10:47:00;102303.53;;;7.53;nan
23321;BME280;33376;51.306;4.752;2023-01-31T10:49:26;102307.09;;;7.49;nan
23321;BME280;33376;51.306;4.752;2023-01-31T10:52:00;102308.88;;;7.47;nan
23321;BME280;33376;51.306;4.752;2023-01-31T10:54:41;102314.28;;;7.41;nan
23321;BME280;33376;51.306;4.752;2023-01-31T10:57:11;102296.59;;;7.46;nan
23321;BME280;33376;51.306;4.752;2023-01-31T10:59:37;102313.00;;;7.62;nan
23321;BME280;33376;51.306;4.752;2023-01-31T11:02:08;102313.56;;;7.80;nan
23321;BME280;33376;51.306;4.752;2023-01-31T11:04:41;102301.00;;;7.91;nan
23321;BME280;33376;51.306;4.752;2023-01-31T11:07:07;102314.13;;;7.94;nan
23321;BME280;33376;51.306;4.752;2023-01-31T11:09:36;102308.50;;;8.09;nan
23321;BME280;33376;51.306;4.752;2023-01-31T11:12:02;102289.91;;;8.14;nan
23321;BME280;33376;51.306;4.752;2023-01-31T11:14:28;102299.94;;;8.39;nan
23321;BME280;33376;51.306;4.752;2023-01-31T11:17:05;102301.69;;;8.42;nan
23321;BME280;33376;51.306;4.752;2023-01-31T11:19:33;102298.91;;;8.46;nan
23321;BME280;33376;51.306;4.752;2023-01-31T11:21:59;102294.97;;;8.64;nan
23321;BME280;33376;51.306;4.752;2023-01-31T11:24:26;102300.28;;;8.64;nan
23321;BME280;33376;51.306;4.752;2023-01-31T11:27:00;102288.59;;;8.74;nan
23321;BME280;33376;51.306;4.752;2023-01-31T11:29:28;102282.28;;;8.78;nan
23321;BME280;33376;51.306;4.752;2023-01-31T11:31:54;102274.72;;;9.00;nan
23321;BME280;33376;51.306;4.752;2023-01-31T11:34:22;102289.75;;;8.98;nan
23321;BME280;33376;51.306;4.752;2023-01-31T11:36:48;102288.03;;;8.97;nan
23321;BME280;33376;51.306;4.752;2023-01-31T11:39:29;102307.94;;;9.10;nan
23321;BME280;33376;51.306;4.752;2023-01-31T11:41:56;102318.13;;;9.26;nan
23321;BME280;33376;51.306;4.752;2023-01-31T11:44:21;102318.28;;;9.20;nan
23321;BME280;33376;51.306;4.752;2023-01-31T11:46:48;102328.16;;;9.14;nan
23321;BME280;33376;51.306;4.752;2023-01-31T11:49:22;102327.63;;;9.00;nan
23321;BME280;33376;51.306;4.752;2023-01-31T11:51:48;102336.44;;;8.99;nan
23321;BME280;33376;51.306;4.752;2023-01-31T11:54:17;102340.44;;;8.79;nan
23321;BME280;33376;51.306;4.752;2023-01-31T11:56:43;102352.00;;;8.75;nan
23321;BME280;33376;51.306;4.752;2023-01-31T11:59:10;102346.38;;;8.89;nan
23321;BME280;33376;51.306;4.752;2023-01-31T12:01:44;102346.38;;;8.89;nan
23321;BME280;33376;51.306;4.752;2023-01-31T12:04:13;102341.13;;;8.87;nan
23321;BME280;33376;51.306;4.752;2023-01-31T12:06:40;102341.28;;;8.81;nan
23321;BME280;33376;51.306;4.752;2023-01-31T12:09:19;102364.25;;;8.79;nan
23321;BME280;33376;51.306;4.752;2023-01-31T12:11:55;102375.59;;;8.84;nan
23321;BME280;33376;51.306;4.752;2023-01-31T12:14:21;102380.16;;;8.78;nan
23321;BME280;33376;51.306;4.752;2023-01-31T12:16:47;102376.63;;;8.79;nan
23321;BME280;33376;51.306;4.752;2023-01-31T12:39:27;102370.66;;;8.68;nan
23321;BME280;33376;51.306;4.752;2023-01-31T12:44:46;102348.84;;;8.60;nan
23321;BME280;33376;51.306;4.752;2023-01-31T12:47:17;102309.38;;;8.51;nan
23321;BME280;33376;51.306;4.752;2023-01-31T12:52:19;102289.97;;;8.53;nan
23321;BME280;33376;51.306;4.752;2023-01-31T13:05:00;102232.75;;;8.49;nan
23321;BME280;33376;51.306;4.752;2023-01-31T13:07:29;102215.88;;;8.56;nan
23321;BME280;33376;51.306;4.752;2023-01-31T13:09:57;102212.50;;;8.50;nan
23321;BME280;33376;51.306;4.752;2023-01-31T13:12:24;102197.13;;;8.65;nan
23321;BME280;33376;51.306;4.752;2023-01-31T13:15:02;102189.31;;;8.61;nan
23321;BME280;33376;51.306;4.752;2023-01-31T13:17:29;102166.66;;;8.51;nan
23321;BME280;33376;51.306;4.752;2023-01-31T13:22:42;102148.09;;;8.52;nan
23321;BME280;33376;51.306;4.752;2023-01-31T13:25:16;102153.38;;;8.52;nan
23321;BME280;33376;51.306;4.752;2023-01-31T13:27:46;102143.72;;;8.51;nan
23321;BME280;33376;51.306;4.752;2023-01-31T13:30:17;102131.44;;;8.49;nan
23321;BME280;33376;51.306;4.752;2023-01-31T13:32:47;102128.84;;;8.47;nan
23321;BME280;33376;51.306;4.752;2023-01-31T13:35:20;102122.28;;;8.62;nan
23321;BME280;33376;51.306;4.752;2023-01-31T13:37:47;102125.22;;;8.51;nan
23321;BME280;33376;51.306;4.752;2023-01-31T13:40:23;102129.72;;;8.48;nan
23321;BME280;33376;51.306;4.752;2023-01-31T13:42:50;102141.13;;;8.50;nan
23321;BME280;33376;51.306;4.752;2023-01-31T13:45:27;102140.28;;;8.48;nan
23321;BME280;33376;51.306;4.752;2023-01-31T13:48:01;102132.72;;;8.34;nan
23321;BME280;33376;51.306;4.752;2023-01-31T13:50:36;102142.25;;;8.40;nan
23321;BME280;33376;51.306;4.752;2023-01-31T13:53:04;102146.63;;;8.42;nan
23321;BME280;33376;51.306;4.752;2023-01-31T13:55:32;102140.88;;;8.59;nan
23321;BME280;33376;51.306;4.752;2023-01-31T13:58:04;102128.59;;;8.58;nan
23321;BME280;33376;51.306;4.752;2023-01-31T14:00:40;102128.88;;;8.79;nan
23321;BME280;33376;51.306;4.752;2023-01-31T14:03:07;102128.66;;;8.88;nan
23321;BME280;33376;51.306;4.752;2023-01-31T14:11:00;102140.13;;;8.87;nan
23321;BME280;33376;51.306;4.752;2023-01-31T14:15:58;102149.06;;;8.83;nan
23321;BME280;33376;51.306;4.752;2023-01-31T14:18:34;102147.97;;;8.90;nan
23321;BME280;33376;51.306;4.752;2023-01-31T14:21:33;102157.59;;;8.93;nan
23321;BME280;33376;51.306;4.752;2023-01-31T14:23:44;102146.38;;;8.85;nan
23321;BME280;33376;51.306;4.752;2023-01-31T14:28:55;102155.47;;;8.73;nan
23321;BME280;33376;51.306;4.752;2023-01-31T14:31:20;102159.09;;;8.71;nan
23321;BME280;33376;51.306;4.752;2023-01-31T14:33:45;102161.69;;;8.72;nan
23321;BME280;33376;51.306;4.752;2023-01-31T14:36:17;102167.91;;;8.70;nan
23321;BME280;33376;51.306;4.752;2023-01-31T14:49:21;102171.63;;;8.63;nan
23321;BME280;33376;51.306;4.752;2023-01-31T14:57:09;102171.78;;;8.57;nan
23321;BME280;33376;51.306;4.752;2023-01-31T15:05:04;102182.22;;;8.63;nan
23321;BME280;33376;51.306;4.752;2023-01-31T15:07:30;102184.66;;;8.70;nan
23321;BME280;33376;51.306;4.752;2023-01-31T15:09:55;102181.94;;;8.73;nan
23321;BME280;33376;51.306;4.752;2023-01-31T15:15:09;102183.53;;;8.80;nan
23321;BME280;33376;51.306;4.752;2023-01-31T15:17:42;102186.97;;;8.82;nan
23321;BME280;33376;51.306;4.752;2023-01-31T15:20:18;102191.00;;;8.97;nan
23321;BME280;33376;51.306;4.752;2023-01-31T15:22:46;102187.75;;;8.86;nan